createdAt,value
2017-12-17T00:00:20.334Z,8.82
2017-12-17T00:02:48.414Z,9.15
2017-12-17T00:05:16.474Z,11.57
2017-12-17T00:07:44.541Z,8.35
2017-12-17T00:10:12.616Z,10.93
2017-12-17T00:12:40.716Z,9.52
2017-12-17T00:15:08.806Z,8.95
2017-12-17T00:17:36.868Z,12.82
2017-12-17T00:20:04.940Z,13.00
2017-12-17T00:22:33.030Z,12.95
2017-12-17T00:25:01.155Z,10.98
2017-12-17T00:27:29.234Z,12.18
2017-12-17T00:29:57.901Z,9.25
2017-12-17T00:32:25.963Z,9.38
2017-12-17T00:34:54.064Z,9.57
2017-12-17T00:37:22.139Z,8.90
2017-12-17T00:39:50.195Z,9.50
2017-12-17T00:42:18.269Z,8.05
2017-12-17T00:44:46.334Z,7.95
2017-12-17T00:47:14.438Z,7.82
2017-12-17T00:49:42.514Z,8.45
2017-12-17T00:52:10.578Z,8.27
2017-12-17T00:54:38.638Z,9.40
2017-12-17T00:57:06.708Z,10.27
2017-12-17T00:59:34.799Z,11.70
2017-12-17T01:02:02.862Z,9.43
2017-12-17T01:04:30.915Z,9.90
2017-12-17T01:06:58.992Z,9.52
2017-12-17T01:09:27.044Z,8.35
2017-12-17T01:11:55.143Z,6.00
2017-12-17T01:14:23.202Z,6.90
2017-12-17T01:16:51.265Z,6.90
2017-12-17T01:19:19.329Z,6.97
2017-12-17T01:21:47.395Z,7.72
2017-12-17T01:24:15.503Z,7.10
2017-12-17T01:26:43.580Z,5.32
2017-12-17T01:29:11.655Z,5.85
2017-12-17T01:31:39.715Z,5.28
2017-12-17T01:34:07.772Z,4.80
2017-12-17T01:36:35.833Z,5.43
2017-12-17T01:39:03.897Z,5.90
2017-12-17T01:41:32.002Z,5.90
2017-12-17T01:44:00.065Z,8.30
2017-12-17T01:46:28.124Z,8.05
2017-12-17T01:48:56.178Z,6.03
2017-12-17T01:51:24.249Z,6.30
2017-12-17T01:53:52.345Z,5.45
2017-12-17T01:56:20.428Z,6.57
2017-12-17T01:58:48.499Z,6.50
2017-12-17T02:01:16.573Z,4.68
2017-12-17T02:03:44.647Z,5.72
2017-12-17T02:06:12.751Z,5.25
2017-12-17T02:08:40.837Z,4.35
2017-12-17T02:11:08.888Z,4.10
2017-12-17T02:13:36.952Z,4.43
2017-12-17T02:16:05.008Z,6.68
2017-12-17T02:18:33.093Z,6.90
2017-12-17T02:21:01.145Z,7.15
2017-12-17T02:23:29.259Z,4.80
2017-12-17T02:25:57.338Z,4.50
2017-12-17T02:28:25.473Z,4.35
2017-12-17T02:30:53.558Z,4.00
2017-12-17T02:33:21.615Z,4.18
2017-12-17T02:35:49.666Z,5.60
2017-12-17T02:38:17.723Z,5.28
2017-12-17T02:40:45.799Z,7.05
2017-12-17T02:43:13.894Z,5.90
2017-12-17T02:45:41.956Z,5.60
2017-12-17T02:48:10.024Z,6.10
2017-12-17T02:50:38.093Z,6.15
2017-12-17T02:53:06.198Z,6.32
2017-12-17T02:55:34.268Z,6.57
2017-12-17T02:58:02.328Z,6.57
2017-12-17T03:00:30.393Z,6.87
2017-12-17T03:02:58.518Z,6.65
2017-12-17T03:05:26.575Z,8.70
2017-12-17T03:07:54.644Z,8.13
2017-12-17T03:10:22.711Z,9.93
2017-12-17T03:12:50.769Z,8.00
2017-12-17T03:15:18.940Z,7.05
2017-12-17T03:17:47.114Z,8.63
2017-12-17T03:20:15.182Z,7.57
2017-12-17T03:22:43.251Z,7.45
2017-12-17T03:25:11.339Z,7.05
2017-12-17T03:27:39.424Z,7.55
2017-12-17T03:30:07.496Z,7.35
2017-12-17T03:32:35.555Z,8.07
2017-12-17T03:35:03.631Z,8.40
2017-12-17T03:37:31.684Z,8.93
2017-12-17T03:39:59.747Z,7.80
2017-12-17T03:42:27.844Z,8.30
2017-12-17T03:44:55.898Z,6.93
2017-12-17T03:47:23.958Z,8.23
2017-12-17T03:49:52.019Z,7.95
2017-12-17T03:52:20.108Z,7.75
2017-12-17T03:54:48.186Z,8.50
2017-12-17T03:57:16.281Z,8.70
2017-12-17T03:59:44.347Z,9.63
2017-12-17T04:02:12.414Z,8.95
2017-12-17T04:04:40.477Z,8.57
2017-12-17T04:07:08.573Z,8.43
2017-12-17T04:09:36.680Z,9.32
2017-12-17T04:12:04.738Z,9.35
2017-12-17T04:14:33.796Z,9.27
2017-12-17T04:17:01.846Z,9.13
2017-12-17T04:19:29.954Z,8.13
2017-12-17T04:21:58.014Z,8.93
2017-12-17T04:24:26.085Z,8.60
2017-12-17T04:26:54.175Z,8.02
2017-12-17T04:29:22.263Z,9.30
2017-12-17T04:31:50.326Z,9.10
2017-12-17T04:34:18.390Z,9.13
2017-12-17T04:36:46.462Z,8.20
2017-12-17T04:39:14.565Z,6.90
2017-12-17T04:41:42.644Z,7.20
2017-12-17T04:44:10.707Z,8.02
2017-12-17T04:46:38.781Z,8.23
2017-12-17T04:49:06.834Z,9.95
2017-12-17T04:51:34.940Z,8.65
2017-12-17T04:54:03.005Z,9.70
2017-12-17T04:56:31.067Z,9.50
2017-12-17T04:58:59.144Z,9.20
2017-12-17T05:01:27.190Z,8.27
2017-12-17T05:03:55.298Z,8.18
2017-12-17T05:06:23.373Z,7.47
2017-12-17T05:08:51.425Z,8.18
2017-12-17T05:11:19.493Z,9.43
2017-12-17T05:13:47.562Z,8.88
2017-12-17T05:16:15.659Z,9.10
2017-12-17T05:18:43.726Z,9.90
2017-12-17T05:21:11.794Z,8.10
2017-12-17T05:23:39.858Z,9.35
2017-12-17T05:26:07.919Z,8.30
2017-12-17T05:28:36.030Z,9.60
2017-12-17T05:31:04.074Z,10.00
2017-12-17T05:33:32.148Z,13.57
2017-12-17T05:36:00.235Z,10.45
2017-12-17T05:38:28.303Z,9.95
2017-12-17T05:40:56.402Z,11.65
2017-12-17T05:43:24.484Z,9.52
2017-12-17T05:45:52.642Z,8.30
2017-12-17T05:48:20.706Z,8.75
2017-12-17T05:50:48.767Z,7.65
2017-12-17T05:53:16.879Z,8.40
2017-12-17T05:55:44.946Z,8.82
2017-12-17T05:58:13.009Z,7.62
2017-12-17T06:00:41.075Z,8.10
2017-12-17T06:03:09.190Z,8.10
2017-12-17T06:05:37.246Z,7.30
2017-12-17T06:08:05.322Z,9.32
2017-12-17T06:10:33.484Z,11.50
2017-12-17T06:13:01.542Z,9.45
2017-12-17T06:15:29.652Z,9.32
2017-12-17T06:17:57.715Z,9.50
2017-12-17T06:20:25.789Z,9.00
2017-12-17T06:22:53.838Z,9.27
2017-12-17T06:25:21.915Z,9.15
2017-12-17T06:27:50.018Z,8.68
2017-12-17T06:30:18.084Z,7.28
2017-12-17T06:32:46.154Z,7.70
2017-12-17T06:35:14.208Z,8.80
2017-12-17T06:37:42.276Z,8.60
2017-12-17T06:40:10.371Z,8.65
2017-12-17T06:42:38.447Z,8.70
2017-12-17T06:45:06.507Z,10.50
2017-12-17T06:47:34.570Z,8.85
2017-12-17T06:50:02.636Z,8.15
2017-12-17T06:52:30.740Z,10.30
2017-12-17T06:54:58.895Z,9.65
2017-12-17T06:57:26.948Z,9.43
2017-12-17T06:59:55.025Z,10.07
2017-12-17T07:02:23.088Z,9.30
2017-12-17T07:04:51.178Z,10.35
2017-12-17T07:07:19.244Z,8.77
2017-12-17T07:09:48.203Z,9.50
2017-12-17T07:12:16.254Z,9.05
2017-12-17T07:14:44.317Z,9.95
2017-12-17T07:17:12.410Z,9.90
2017-12-17T07:19:40.480Z,12.00
2017-12-17T07:22:08.546Z,10.20
2017-12-17T07:24:36.636Z,11.38
2017-12-17T07:27:04.699Z,9.13
2017-12-17T07:29:32.810Z,10.20
2017-12-17T07:32:00.913Z,9.52
2017-12-17T07:34:28.995Z,12.70
2017-12-17T07:36:57.063Z,9.85
2017-12-17T07:39:25.132Z,10.88
2017-12-17T07:41:53.222Z,10.63
2017-12-17T07:44:21.284Z,9.50
2017-12-17T07:46:49.361Z,11.10
2017-12-17T07:49:17.441Z,10.50
2017-12-17T07:51:45.543Z,10.50
2017-12-17T07:54:13.654Z,9.73
2017-12-17T07:56:41.742Z,9.15
2017-12-17T07:59:09.816Z,9.57
2017-12-17T08:01:37.887Z,11.00
2017-12-17T08:04:05.961Z,9.40
2017-12-17T08:06:34.052Z,7.95
2017-12-17T08:09:02.110Z,7.70
2017-12-17T08:11:30.171Z,9.15
2017-12-17T08:13:58.279Z,7.65
2017-12-17T08:16:26.347Z,7.60
2017-12-17T08:18:54.467Z,7.50
2017-12-17T08:21:22.550Z,7.25
2017-12-17T08:23:50.615Z,9.45
2017-12-17T08:26:18.694Z,8.77
2017-12-17T08:28:46.764Z,8.55
2017-12-17T08:31:14.863Z,8.23
2017-12-17T08:33:42.927Z,7.40
2017-12-17T08:36:10.997Z,6.97
2017-12-17T08:38:39.069Z,7.32
2017-12-17T08:41:07.150Z,6.93
2017-12-17T08:43:35.207Z,7.60
2017-12-17T08:46:03.291Z,7.62
2017-12-17T08:48:31.484Z,7.82
2017-12-17T08:50:59.542Z,7.82
2017-12-17T08:53:27.631Z,8.10
2017-12-17T08:55:55.679Z,8.00
2017-12-17T08:58:23.746Z,8.35
2017-12-17T09:00:51.855Z,10.95
2017-12-17T09:03:19.918Z,9.00
2017-12-17T09:05:47.998Z,9.50
2017-12-17T09:08:16.059Z,11.70
2017-12-17T09:10:44.141Z,10.18
2017-12-17T09:13:12.244Z,9.90
2017-12-17T09:15:40.410Z,9.15
2017-12-17T09:18:08.434Z,9.38
2017-12-17T09:20:36.499Z,9.35
2017-12-17T09:23:04.566Z,10.30
2017-12-17T09:25:32.669Z,8.68
2017-12-17T09:28:00.744Z,7.97
2017-12-17T09:30:28.817Z,9.57
2017-12-17T09:32:56.904Z,8.68
2017-12-17T09:35:24.972Z,8.90
2017-12-17T09:37:53.108Z,9.35
2017-12-17T09:40:21.176Z,8.10
2017-12-17T09:42:49.249Z,7.12
2017-12-17T09:45:17.321Z,6.62
2017-12-17T09:47:45.396Z,6.75
2017-12-17T09:50:13.491Z,6.53
2017-12-17T09:52:41.656Z,7.00
2017-12-17T09:55:09.751Z,8.23
2017-12-17T09:57:37.893Z,7.90
2017-12-17T10:00:06.008Z,7.97
2017-12-17T10:02:34.144Z,6.90
2017-12-17T10:05:02.227Z,7.78
2017-12-17T10:07:30.330Z,7.45
2017-12-17T10:09:58.406Z,7.70
2017-12-17T10:12:26.490Z,7.75
2017-12-17T10:14:54.564Z,7.05
2017-12-17T10:17:22.638Z,8.98
2017-12-17T10:19:50.699Z,7.93
2017-12-17T10:22:18.774Z,7.07
2017-12-17T10:24:46.859Z,7.95
2017-12-17T10:27:14.971Z,8.00
2017-12-17T10:29:43.040Z,7.47
2017-12-17T10:32:11.697Z,5.78
2017-12-17T10:34:39.841Z,6.87
2017-12-17T10:37:07.906Z,7.55
2017-12-17T10:39:35.984Z,7.60
2017-12-17T10:42:04.059Z,7.45
2017-12-17T10:44:32.155Z,7.90
2017-12-17T10:47:00.221Z,8.98
2017-12-17T10:49:28.293Z,9.32
2017-12-17T10:51:56.354Z,7.50
2017-12-17T10:54:24.435Z,7.32
2017-12-17T10:56:52.518Z,7.32
2017-12-17T10:59:20.600Z,7.43
2017-12-17T11:01:48.700Z,7.32
2017-12-17T11:04:16.782Z,8.85
2017-12-17T11:06:44.867Z,8.63
2017-12-17T11:09:12.951Z,8.20
2017-12-17T11:11:41.007Z,7.82
2017-12-17T11:14:09.112Z,8.88
2017-12-17T11:16:37.187Z,9.20
2017-12-17T11:19:05.334Z,10.25
2017-12-17T11:21:33.422Z,9.88
2017-12-17T11:24:01.527Z,11.15
2017-12-17T11:26:29.708Z,8.27
2017-12-17T11:28:57.806Z,9.23
2017-12-17T11:31:25.895Z,7.82
2017-12-17T11:33:53.983Z,7.75
2017-12-17T11:36:22.090Z,8.10
2017-12-17T11:38:50.173Z,8.48
2017-12-17T11:41:18.259Z,7.35
2017-12-17T11:43:46.374Z,6.30
2017-12-17T11:46:14.434Z,6.62
2017-12-17T11:48:42.501Z,5.57
2017-12-17T11:51:10.602Z,6.35
2017-12-17T11:53:38.677Z,6.90
2017-12-17T11:56:06.738Z,7.15
2017-12-17T11:58:34.817Z,7.05
2017-12-17T12:01:02.888Z,6.62
2017-12-17T12:03:30.987Z,5.30
2017-12-17T12:05:59.073Z,5.35
2017-12-17T12:08:27.161Z,4.75
2017-12-17T12:10:55.224Z,4.37
2017-12-17T12:13:24.182Z,5.18
2017-12-17T12:15:52.321Z,5.20
2017-12-17T12:18:20.386Z,4.47
2017-12-17T12:20:48.455Z,3.87
2017-12-17T12:23:16.518Z,5.30
2017-12-17T12:25:44.580Z,5.45
2017-12-17T12:28:12.692Z,5.05
2017-12-17T12:30:40.749Z,5.75
2017-12-17T12:33:08.838Z,5.93
2017-12-17T12:35:36.906Z,6.15
2017-12-17T12:38:04.978Z,6.43
2017-12-17T12:40:33.091Z,5.30
2017-12-17T12:43:01.210Z,5.65
2017-12-17T12:45:29.307Z,6.07
2017-12-17T12:47:57.384Z,6.95
2017-12-17T12:50:25.470Z,6.65
2017-12-17T12:52:53.569Z,6.15
2017-12-17T12:55:21.644Z,6.20
2017-12-17T12:57:49.716Z,6.43
2017-12-17T13:00:17.823Z,7.07
2017-12-17T13:02:45.902Z,6.75
2017-12-17T13:05:14.075Z,6.80
2017-12-17T13:07:42.204Z,6.07
2017-12-17T13:10:10.294Z,6.85
2017-12-17T13:12:38.442Z,7.70
2017-12-17T13:15:07.332Z,7.15
2017-12-17T13:17:35.455Z,6.70
2017-12-17T13:20:03.550Z,6.45
2017-12-17T13:22:31.622Z,7.30
2017-12-17T13:24:59.767Z,8.57
2017-12-17T13:27:27.787Z,8.07
2017-12-17T13:29:55.890Z,7.40
2017-12-17T13:32:24.461Z,6.93
2017-12-17T13:34:52.536Z,7.87
2017-12-17T13:37:20.607Z,6.87
2017-12-17T13:39:48.675Z,5.55
2017-12-17T13:42:16.809Z,5.97
2017-12-17T13:44:44.867Z,7.32
2017-12-17T13:47:12.954Z,6.80
2017-12-17T13:52:15.296Z,6.05
2017-12-17T13:54:43.468Z,7.57
2017-12-17T13:57:11.542Z,6.90
2017-12-17T13:59:39.624Z,7.50
2017-12-17T14:02:07.699Z,7.57
2017-12-17T14:04:36.689Z,5.70
2017-12-17T14:07:05.150Z,6.05
2017-12-17T14:09:33.527Z,6.45
2017-12-17T14:12:01.743Z,6.65
2017-12-17T14:14:29.979Z,7.85
2017-12-17T14:16:58.047Z,7.07
2017-12-17T14:19:26.150Z,7.30
2017-12-17T14:21:54.260Z,8.48
2017-12-17T14:24:22.321Z,8.13
2017-12-17T14:26:50.395Z,8.45
2017-12-17T14:29:18.525Z,9.65
2017-12-17T14:31:46.590Z,9.02
2017-12-17T14:34:14.700Z,10.00
2017-12-17T14:36:42.814Z,9.75
2017-12-17T14:39:10.880Z,10.32
2017-12-17T14:41:39.977Z,10.38
2017-12-17T14:44:08.375Z,11.07
2017-12-17T14:46:36.727Z,9.20
2017-12-17T14:49:05.121Z,11.10
2017-12-17T14:51:33.466Z,10.48
2017-12-17T14:54:02.003Z,9.57
2017-12-17T14:56:31.282Z,10.15
2017-12-17T14:58:59.727Z,8.32
2017-12-17T15:01:28.629Z,7.93
2017-12-17T15:03:57.248Z,9.38
2017-12-17T15:06:26.784Z,8.43
2017-12-17T15:08:57.578Z,7.78
2017-12-17T15:11:26.183Z,7.50
2017-12-17T15:13:54.979Z,7.62
2017-12-17T15:16:23.803Z,9.73
2017-12-17T15:18:52.626Z,11.95
2017-12-17T15:21:22.350Z,11.32
2017-12-17T15:23:51.079Z,8.65
2017-12-17T15:26:19.676Z,8.80
2017-12-17T15:28:48.412Z,6.43
2017-12-17T15:31:17.114Z,6.97
2017-12-17T15:33:45.679Z,8.40
2017-12-17T15:36:14.389Z,7.20
2017-12-17T15:38:42.947Z,6.47
2017-12-17T15:41:11.623Z,7.47
2017-12-17T15:43:40.313Z,7.65
2017-12-17T15:46:09.053Z,8.35
2017-12-17T15:48:38.849Z,7.20
2017-12-17T15:51:10.641Z,10.80
2017-12-17T15:53:39.406Z,9.85
2017-12-17T15:56:08.006Z,8.80
2017-12-17T15:58:36.799Z,10.18
2017-12-17T16:01:05.231Z,9.30
2017-12-17T16:03:33.875Z,11.25
2017-12-17T16:06:02.566Z,10.90
2017-12-17T16:08:31.390Z,9.90
2017-12-17T16:11:00.068Z,9.70
2017-12-17T16:13:28.504Z,8.90
2017-12-17T16:15:56.881Z,8.63
2017-12-17T16:18:25.238Z,8.50
2017-12-17T16:20:54.489Z,7.57
2017-12-17T16:23:22.952Z,7.53
2017-12-17T16:25:53.215Z,6.60
2017-12-17T16:28:21.555Z,6.75
2017-12-17T16:30:49.945Z,9.07
2017-12-17T16:33:18.304Z,10.80
2017-12-17T16:35:46.679Z,12.68
2017-12-17T16:38:15.028Z,10.35
2017-12-17T16:40:43.403Z,10.98
2017-12-17T16:43:11.820Z,7.22
2017-12-17T16:45:40.188Z,10.25
2017-12-17T16:48:08.542Z,9.23
2017-12-17T16:50:36.906Z,7.30
2017-12-17T16:53:05.266Z,17.77
2017-12-17T16:55:33.658Z,29.85
2017-12-17T16:58:02.032Z,27.25
2017-12-17T17:00:30.374Z,8.10
2017-12-17T17:02:58.719Z,14.55
2017-12-17T17:05:33.741Z,15.13
2017-12-17T17:08:02.255Z,8.98
2017-12-17T17:10:30.602Z,9.00
2017-12-17T17:12:58.967Z,10.20
2017-12-17T17:15:27.353Z,8.40
2017-12-17T17:17:55.700Z,11.85
2017-12-17T17:20:24.118Z,9.02
2017-12-17T17:22:52.487Z,5.80
2017-12-17T17:25:20.837Z,5.97
2017-12-17T17:27:49.190Z,6.70
2017-12-17T17:30:17.604Z,7.32
2017-12-17T17:32:45.969Z,6.57
2017-12-17T17:35:14.364Z,9.38
2017-12-17T17:37:42.703Z,6.85
2017-12-17T17:40:11.112Z,9.13
2017-12-17T17:42:39.458Z,10.13
2017-12-17T17:45:07.819Z,11.45
2017-12-17T17:47:36.206Z,9.27
2017-12-17T17:50:04.560Z,16.17
2017-12-17T17:52:32.967Z,18.20
2017-12-17T17:55:01.310Z,23.40
2017-12-17T17:57:29.707Z,15.30
2017-12-17T17:59:58.071Z,4.45
2017-12-17T18:02:26.487Z,29.02
2017-12-17T18:04:54.978Z,16.08
2017-12-17T18:07:23.340Z,5.43
2017-12-17T18:09:51.683Z,5.50
2017-12-17T18:12:20.017Z,4.60
2017-12-17T18:14:48.380Z,5.03
2017-12-17T18:17:16.859Z,4.80
2017-12-17T18:19:45.252Z,5.40
2017-12-17T18:22:13.600Z,5.97
2017-12-17T18:24:41.987Z,5.35
2017-12-17T18:27:10.651Z,5.43
2017-12-17T18:29:39.280Z,5.50
2017-12-17T18:32:07.796Z,5.10
2017-12-17T18:34:36.162Z,4.65
2017-12-17T18:37:04.514Z,5.30
2017-12-17T18:39:32.878Z,5.05
2017-12-17T18:42:01.277Z,5.80
2017-12-17T18:44:29.617Z,5.50
2017-12-17T18:46:57.955Z,5.70
2017-12-17T18:49:26.317Z,7.37
2017-12-17T18:51:54.678Z,6.30
2017-12-17T18:54:23.059Z,7.62
2017-12-17T18:56:51.406Z,7.28
2017-12-17T18:59:19.807Z,7.12
2017-12-17T19:01:48.246Z,8.18
2017-12-17T19:04:16.603Z,8.30
2017-12-17T19:06:44.984Z,6.72
2017-12-17T19:09:13.321Z,6.57
2017-12-17T19:11:41.930Z,6.50
2017-12-17T19:14:10.270Z,7.22
2017-12-17T19:16:38.630Z,6.65
2017-12-17T19:19:07.341Z,8.25
2017-12-17T19:21:36.536Z,7.90
2017-12-17T19:24:04.886Z,8.13
2017-12-17T19:26:33.312Z,8.50
2017-12-17T19:29:01.716Z,7.22
2017-12-17T19:31:30.205Z,7.68
2017-12-17T19:33:58.549Z,7.80
2017-12-17T19:36:26.908Z,7.85
2017-12-17T19:38:55.254Z,7.28
2017-12-17T19:41:23.591Z,7.70
2017-12-17T19:43:51.981Z,7.03
2017-12-17T19:46:20.331Z,7.03
2017-12-17T19:48:48.685Z,7.20
2017-12-17T19:51:17.042Z,7.28
2017-12-17T19:53:45.410Z,6.32
2017-12-17T19:56:13.787Z,8.00
2017-12-17T19:58:42.127Z,8.27
2017-12-17T20:01:10.519Z,9.77
2017-12-17T20:03:38.902Z,7.15
2017-12-17T20:06:07.249Z,8.75
2017-12-17T20:08:35.642Z,7.80
2017-12-17T20:11:04.008Z,10.70
2017-12-17T20:13:32.393Z,10.35
2017-12-17T20:16:01.766Z,10.05
2017-12-17T20:18:30.137Z,9.23
2017-12-17T20:20:58.516Z,9.50
2017-12-17T20:23:26.875Z,9.85
2017-12-17T20:25:55.234Z,10.10
2017-12-17T20:28:23.591Z,8.85
2017-12-17T20:30:51.943Z,10.07
2017-12-17T20:33:20.382Z,10.35
2017-12-17T20:35:48.727Z,10.07
2017-12-17T20:38:17.140Z,9.25
2017-12-17T20:40:45.486Z,10.38
2017-12-17T20:43:13.832Z,12.10
2017-12-17T20:45:42.216Z,10.45
2017-12-17T20:48:10.573Z,10.90
2017-12-17T20:50:38.979Z,12.70
2017-12-17T20:53:07.334Z,11.30
2017-12-17T20:55:35.706Z,11.35
2017-12-17T20:58:04.185Z,11.23
2017-12-17T21:00:32.520Z,11.20
2017-12-17T21:03:00.880Z,13.20
2017-12-17T21:05:29.237Z,10.20
2017-12-17T21:07:57.588Z,10.90
2017-12-17T21:10:25.971Z,12.07
2017-12-17T21:12:54.325Z,12.10
2017-12-17T21:15:22.686Z,11.12
2017-12-17T21:17:51.047Z,10.20
2017-12-17T21:20:19.422Z,9.50
2017-12-17T21:22:47.766Z,10.20
2017-12-17T21:25:16.118Z,9.52
2017-12-17T21:27:44.466Z,11.02
2017-12-17T21:30:12.819Z,10.95
2017-12-17T21:32:41.450Z,12.88
2017-12-17T21:35:09.780Z,10.82
2017-12-17T21:37:38.125Z,10.20
2017-12-17T21:40:06.478Z,10.50
2017-12-17T21:42:34.840Z,10.02
2017-12-17T21:45:03.222Z,10.07
2017-12-17T21:47:31.566Z,9.70
2017-12-17T21:49:59.905Z,9.18
2017-12-17T21:52:28.262Z,9.27
2017-12-17T21:54:56.595Z,8.75
2017-12-17T21:57:24.989Z,7.95
2017-12-17T21:59:53.336Z,7.82
2017-12-17T22:02:21.677Z,6.78
2017-12-17T22:04:50.039Z,8.25
2017-12-17T22:07:18.388Z,7.65
2017-12-17T22:09:46.745Z,7.03
2017-12-17T22:12:15.257Z,8.63
2017-12-17T22:14:43.663Z,8.00
2017-12-17T22:17:12.049Z,7.45
2017-12-17T22:19:40.624Z,8.18
2017-12-17T22:22:08.976Z,7.37
2017-12-17T22:24:37.328Z,7.28
2017-12-17T22:27:05.687Z,7.57
2017-12-17T22:29:34.027Z,7.87
2017-12-17T22:32:02.382Z,8.77
2017-12-17T22:34:30.740Z,8.07
2017-12-17T22:36:59.132Z,8.10
2017-12-17T22:39:27.477Z,8.05
2017-12-17T22:41:55.836Z,8.18
2017-12-17T22:44:24.192Z,9.38
2017-12-17T22:46:52.539Z,7.93
2017-12-17T22:49:20.890Z,7.80
2017-12-17T22:51:49.237Z,8.40
2017-12-17T22:54:17.583Z,7.65
2017-12-17T22:56:45.918Z,6.72
2017-12-17T22:59:14.330Z,7.85
2017-12-17T23:01:42.677Z,6.82
2017-12-17T23:04:11.261Z,7.07
2017-12-17T23:06:39.733Z,7.53
2017-12-17T23:09:08.403Z,7.43
2017-12-17T23:11:37.117Z,6.80
2017-12-17T23:14:05.528Z,6.50
2017-12-17T23:16:33.944Z,6.35
2017-12-17T23:19:02.344Z,6.43
2017-12-17T23:21:30.734Z,6.55
2017-12-17T23:23:59.113Z,6.10
2017-12-17T23:26:27.446Z,6.18
2017-12-17T23:28:55.790Z,7.28
2017-12-17T23:31:24.136Z,6.93
2017-12-17T23:33:52.493Z,6.93
2017-12-17T23:36:20.876Z,6.97
2017-12-17T23:38:49.221Z,7.62
2017-12-17T23:41:17.565Z,8.45
2017-12-17T23:43:45.917Z,6.60
2017-12-17T23:46:14.256Z,6.87
2017-12-17T23:48:42.633Z,7.30
2017-12-17T23:51:10.991Z,6.80
2017-12-17T23:53:39.334Z,6.75
2017-12-17T23:56:07.680Z,6.50
2017-12-17T23:58:36.043Z,6.40
